sensor_id;sensor_type;location;lat;lon;timestamp;temperature;humidity
2621;DHT22;1320;48.128;11.592;2023-05-07T00:01:08;16.40;99.90
2621;DHT22;1320;48.128;11.592;2023-05-07T00:03:34;16.40;99.90
2621;DHT22;1320;48.128;11.592;2023-05-07T00:06:00;16.40;99.90
2621;DHT22;1320;48.128;11.592;2023-05-07T00:08:26;16.40;99.90
2621;DHT22;1320;48.128;11.592;2023-05-07T00:10:51;16.30;99.90
2621;DHT22;1320;48.128;11.592;2023-05-07T00:13:17;16.30;99.90
2621;DHT22;1320;48.128;11.592;2023-05-07T00:15:42;16.30;99.90
2621;DHT22;1320;48.128;11.592;2023-05-07T00:18:08;16.30;99.90
2621;DHT22;1320;48.128;11.592;2023-05-07T00:20:34;16.30;99.90
2621;DHT22;1320;48.128;11.592;2023-05-07T00:22:59;16.30;99.90
2621;DHT22;1320;48.128;11.592;2023-05-07T00:25:25;16.30;99.90
2621;DHT22;1320;48.128;11.592;2023-05-07T00:27:51;16.30;99.90
2621;DHT22;1320;48.128;11.592;2023-05-07T00:30:17;16.20;99.90
2621;DHT22;1320;48.128;11.592;2023-05-07T00:32:42;16.20;99.90
2621;DHT22;1320;48.128;11.592;2023-05-07T00:35:11;16.20;99.90
2621;DHT22;1320;48.128;11.592;2023-05-07T00:37:36;16.20;99.90
2621;DHT22;1320;48.128;11.592;2023-05-07T00:40:02;16.20;99.90
2621;DHT22;1320;48.128;11.592;2023-05-07T00:42:30;16.20;99.90
2621;DHT22;1320;48.128;11.592;2023-05-07T00:44:58;16.20;99.90
2621;DHT22;1320;48.128;11.592;2023-05-07T00:47:24;16.20;99.90
2621;DHT22;1320;48.128;11.592;2023-05-07T00:49:51;16.20;99.90
2621;DHT22;1320;48.128;11.592;2023-05-07T00:52:17;16.20;99.90
2621;DHT22;1320;48.128;11.592;2023-05-07T00:54:45;16.20;99.90
2621;DHT22;1320;48.128;11.592;2023-05-07T00:57:11;16.20;99.90
2621;DHT22;1320;48.128;11.592;2023-05-07T00:59:37;16.20;99.90
2621;DHT22;1320;48.128;11.592;2023-05-07T01:02:03;16.20;99.90
2621;DHT22;1320;48.128;11.592;2023-05-07T01:04:29;16.20;99.90
2621;DHT22;1320;48.128;11.592;2023-05-07T01:06:55;16.20;99.90
2621;DHT22;1320;48.128;11.592;2023-05-07T01:09:23;16.20;99.90
2621;DHT22;1320;48.128;11.592;2023-05-07T01:11:49;16.20;99.90
2621;DHT22;1320;48.128;11.592;2023-05-07T01:14:21;16.10;99.90
2621;DHT22;1320;48.128;11.592;2023-05-07T01:16:48;16.00;99.90
2621;DHT22;1320;48.128;11.592;2023-05-07T01:19:18;16.00;99.90
2621;DHT22;1320;48.128;11.592;2023-05-07T01:21:46;15.90;99.90
2621;DHT22;1320;48.128;11.592;2023-05-07T01:24:12;15.90;99.90
2621;DHT22;1320;48.128;11.592;2023-05-07T01:26:38;15.90;99.90
2621;DHT22;1320;48.128;11.592;2023-05-07T01:29:04;15.80;99.90
2621;DHT22;1320;48.128;11.592;2023-05-07T01:31:30;15.80;99.90
2621;DHT22;1320;48.128;11.592;2023-05-07T01:33:56;15.80;99.90
2621;DHT22;1320;48.128;11.592;2023-05-07T01:36:24;15.80;99.90
2621;DHT22;1320;48.128;11.592;2023-05-07T01:38:52;15.70;99.90
2621;DHT22;1320;48.128;11.592;2023-05-07T01:41:19;15.70;99.90
2621;DHT22;1320;48.128;11.592;2023-05-07T01:43:46;15.70;99.90
2621;DHT22;1320;48.128;11.592;2023-05-07T01:46:12;15.70;99.90
2621;DHT22;1320;48.128;11.592;2023-05-07T01:48:39;15.80;99.90
2621;DHT22;1320;48.128;11.592;2023-05-07T01:51:05;15.70;99.90
2621;DHT22;1320;48.128;11.592;2023-05-07T01:53:38;15.80;99.90
2621;DHT22;1320;48.128;11.592;2023-05-07T01:56:05;15.80;99.90
2621;DHT22;1320;48.128;11.592;2023-05-07T01:58:30;15.80;99.90
2621;DHT22;1320;48.128;11.592;2023-05-07T02:00:56;15.80;99.90
2621;DHT22;1320;48.128;11.592;2023-05-07T02:03:22;15.80;99.90
2621;DHT22;1320;48.128;11.592;2023-05-07T02:05:47;15.80;99.90
2621;DHT22;1320;48.128;11.592;2023-05-07T02:08:13;15.80;99.90
2621;DHT22;1320;48.128;11.592;2023-05-07T02:10:39;15.70;99.90
2621;DHT22;1320;48.128;11.592;2023-05-07T02:13:04;15.70;99.90
2621;DHT22;1320;48.128;11.592;2023-05-07T02:15:30;15.60;99.90
2621;DHT22;1320;48.128;11.592;2023-05-07T02:18:00;15.60;99.90
2621;DHT22;1320;48.128;11.592;2023-05-07T02:20:26;15.60;99.90
2621;DHT22;1320;48.128;11.592;2023-05-07T02:22:52;15.50;99.90
2621;DHT22;1320;48.128;11.592;2023-05-07T02:25:18;15.50;99.90
2621;DHT22;1320;48.128;11.592;2023-05-07T02:27:43;15.40;99.90
2621;DHT22;1320;48.128;11.592;2023-05-07T02:30:09;15.40;99.90
2621;DHT22;1320;48.128;11.592;2023-05-07T02:32:35;15.40;99.90
2621;DHT22;1320;48.128;11.592;2023-05-07T02:35:01;15.40;99.90
2621;DHT22;1320;48.128;11.592;2023-05-07T02:37:26;15.30;99.90
2621;DHT22;1320;48.128;11.592;2023-05-07T02:39:52;15.30;99.90
2621;DHT22;1320;48.128;11.592;2023-05-07T02:42:18;15.20;99.90
2621;DHT22;1320;48.128;11.592;2023-05-07T02:44:43;15.20;99.90
2621;DHT22;1320;48.128;11.592;2023-05-07T02:47:09;15.10;99.90
2621;DHT22;1320;48.128;11.592;2023-05-07T02:49:35;15.10;99.90
2621;DHT22;1320;48.128;11.592;2023-05-07T02:52:01;15.10;99.90
2621;DHT22;1320;48.128;11.592;2023-05-07T02:54:27;15.00;99.90
2621;DHT22;1320;48.128;11.592;2023-05-07T02:56:53;15.00;99.90
2621;DHT22;1320;48.128;11.592;2023-05-07T02:59:19;15.00;99.90
2621;DHT22;1320;48.128;11.592;2023-05-07T03:01:44;14.90;99.90
2621;DHT22;1320;48.128;11.592;2023-05-07T03:04:10;14.90;99.90
2621;DHT22;1320;48.128;11.592;2023-05-07T03:06:36;14.80;99.90
2621;DHT22;1320;48.128;11.592;2023-05-07T03:09:02;14.80;99.90
2621;DHT22;1320;48.128;11.592;2023-05-07T03:11:28;14.70;99.90
2621;DHT22;1320;48.128;11.592;2023-05-07T03:13:53;14.70;99.90
2621;DHT22;1320;48.128;11.592;2023-05-07T03:16:19;14.60;99.90
2621;DHT22;1320;48.128;11.592;2023-05-07T03:18:45;14.60;99.90
2621;DHT22;1320;48.128;11.592;2023-05-07T03:21:10;14.60;99.90
2621;DHT22;1320;48.128;11.592;2023-05-07T03:23:36;14.60;99.90
2621;DHT22;1320;48.128;11.592;2023-05-07T03:26:02;14.60;99.90
2621;DHT22;1320;48.128;11.592;2023-05-07T03:28:27;14.60;99.90
2621;DHT22;1320;48.128;11.592;2023-05-07T03:30:53;14.60;99.90
2621;DHT22;1320;48.128;11.592;2023-05-07T03:33:19;14.60;99.90
2621;DHT22;1320;48.128;11.592;2023-05-07T03:35:44;14.60;99.90
2621;DHT22;1320;48.128;11.592;2023-05-07T03:38:10;14.60;99.90
2621;DHT22;1320;48.128;11.592;2023-05-07T03:40:36;14.60;99.90
2621;DHT22;1320;48.128;11.592;2023-05-07T03:43:02;14.70;99.90
2621;DHT22;1320;48.128;11.592;2023-05-07T03:45:27;14.70;99.90
2621;DHT22;1320;48.128;11.592;2023-05-07T03:47:53;14.70;99.90
2621;DHT22;1320;48.128;11.592;2023-05-07T03:50:19;14.70;99.90
2621;DHT22;1320;48.128;11.592;2023-05-07T03:52:45;14.70;99.90
2621;DHT22;1320;48.128;11.592;2023-05-07T03:55:11;14.70;99.90
2621;DHT22;1320;48.128;11.592;2023-05-07T03:57:36;14.70;99.90
2621;DHT22;1320;48.128;11.592;2023-05-07T04:00:02;14.60;99.90
2621;DHT22;1320;48.128;11.592;2023-05-07T04:02:29;14.60;99.90
2621;DHT22;1320;48.128;11.592;2023-05-07T04:04:55;14.60;99.90
2621;DHT22;1320;48.128;11.592;2023-05-07T04:07:21;14.60;99.90
2621;DHT22;1320;48.128;11.592;2023-05-07T04:09:47;14.60;99.90
2621;DHT22;1320;48.128;11.592;2023-05-07T04:12:12;14.50;99.90
2621;DHT22;1320;48.128;11.592;2023-05-07T04:14:41;14.50;99.90
2621;DHT22;1320;48.128;11.592;2023-05-07T04:17:06;14.40;99.90
2621;DHT22;1320;48.128;11.592;2023-05-07T04:19:33;14.40;99.90
2621;DHT22;1320;48.128;11.592;2023-05-07T04:21:59;14.30;99.90
2621;DHT22;1320;48.128;11.592;2023-05-07T04:24:25;14.30;99.90
2621;DHT22;1320;48.128;11.592;2023-05-07T04:26:50;14.30;99.90
2621;DHT22;1320;48.128;11.592;2023-05-07T04:29:17;14.30;99.90
2621;DHT22;1320;48.128;11.592;2023-05-07T04:31:42;14.20;99.90
2621;DHT22;1320;48.128;11.592;2023-05-07T04:34:10;14.20;99.90
2621;DHT22;1320;48.128;11.592;2023-05-07T04:36:38;14.20;99.90
2621;DHT22;1320;48.128;11.592;2023-05-07T04:39:04;14.20;99.90
2621;DHT22;1320;48.128;11.592;2023-05-07T04:41:29;14.20;99.90
2621;DHT22;1320;48.128;11.592;2023-05-07T04:43:55;14.20;99.90
2621;DHT22;1320;48.128;11.592;2023-05-07T04:46:22;14.20;99.90
2621;DHT22;1320;48.128;11.592;2023-05-07T04:48:49;14.30;99.90
2621;DHT22;1320;48.128;11.592;2023-05-07T04:51:15;14.30;99.90
2621;DHT22;1320;48.128;11.592;2023-05-07T04:53:40;14.40;99.90
2621;DHT22;1320;48.128;11.592;2023-05-07T04:56:06;14.50;99.90
2621;DHT22;1320;48.128;11.592;2023-05-07T04:58:32;14.50;99.90
2621;DHT22;1320;48.128;11.592;2023-05-07T05:00:58;14.50;99.90
2621;DHT22;1320;48.128;11.592;2023-05-07T05:03:24;14.50;99.90
2621;DHT22;1320;48.128;11.592;2023-05-07T05:05:51;14.50;99.90
2621;DHT22;1320;48.128;11.592;2023-05-07T05:08:17;14.50;99.90
2621;DHT22;1320;48.128;11.592;2023-05-07T05:10:43;14.60;99.90
2621;DHT22;1320;48.128;11.592;2023-05-07T05:13:09;14.60;99.90
2621;DHT22;1320;48.128;11.592;2023-05-07T05:15:35;14.60;99.90
2621;DHT22;1320;48.128;11.592;2023-05-07T05:18:01;14.60;99.90
2621;DHT22;1320;48.128;11.592;2023-05-07T05:20:26;14.70;99.90
2621;DHT22;1320;48.128;11.592;2023-05-07T05:22:52;14.60;99.90
2621;DHT22;1320;48.128;11.592;2023-05-07T05:25:18;14.60;99.90
2621;DHT22;1320;48.128;11.592;2023-05-07T05:27:43;14.70;99.90
2621;DHT22;1320;48.128;11.592;2023-05-07T05:30:09;14.80;99.90
2621;DHT22;1320;48.128;11.592;2023-05-07T05:32:35;14.80;99.90
2621;DHT22;1320;48.128;11.592;2023-05-07T05:35:01;14.90;99.90
2621;DHT22;1320;48.128;11.592;2023-05-07T05:37:27;15.00;99.90
2621;DHT22;1320;48.128;11.592;2023-05-07T05:39:52;15.00;99.90
2621;DHT22;1320;48.128;11.592;2023-05-07T05:42:20;15.10;99.90
2621;DHT22;1320;48.128;11.592;2023-05-07T05:44:45;15.20;99.90
2621;DHT22;1320;48.128;11.592;2023-05-07T05:47:11;15.30;99.90
2621;DHT22;1320;48.128;11.592;2023-05-07T05:49:37;15.40;99.90
2621;DHT22;1320;48.128;11.592;2023-05-07T05:52:02;15.50;99.90
2621;DHT22;1320;48.128;11.592;2023-05-07T05:54:28;15.60;99.90
2621;DHT22;1320;48.128;11.592;2023-05-07T05:56:54;15.70;99.90
2621;DHT22;1320;48.128;11.592;2023-05-07T05:59:20;15.80;99.90
2621;DHT22;1320;48.128;11.592;2023-05-07T06:01:46;15.90;99.90
2621;DHT22;1320;48.128;11.592;2023-05-07T06:04:11;16.00;99.90
2621;DHT22;1320;48.128;11.592;2023-05-07T06:06:37;16.10;99.90
2621;DHT22;1320;48.128;11.592;2023-05-07T06:09:03;16.20;99.90
2621;DHT22;1320;48.128;11.592;2023-05-07T06:11:28;16.30;99.90
2621;DHT22;1320;48.128;11.592;2023-05-07T06:13:56;16.40;99.90
2621;DHT22;1320;48.128;11.592;2023-05-07T06:16:22;16.50;99.90
2621;DHT22;1320;48.128;11.592;2023-05-07T06:18:48;16.70;99.90
2621;DHT22;1320;48.128;11.592;2023-05-07T06:21:14;16.80;99.90
2621;DHT22;1320;48.128;11.592;2023-05-07T06:23:40;16.90;99.90
2621;DHT22;1320;48.128;11.592;2023-05-07T06:26:06;17.10;99.90
2621;DHT22;1320;48.128;11.592;2023-05-07T06:28:32;17.20;99.90
2621;DHT22;1320;48.128;11.592;2023-05-07T06:31:18;17.30;99.90
2621;DHT22;1320;48.128;11.592;2023-05-07T06:33:48;17.40;99.90
2621;DHT22;1320;48.128;11.592;2023-05-07T06:36:14;17.60;99.90
2621;DHT22;1320;48.128;11.592;2023-05-07T06:38:40;17.70;99.90
2621;DHT22;1320;48.128;11.592;2023-05-07T06:41:06;17.80;99.90
2621;DHT22;1320;48.128;11.592;2023-05-07T06:43:32;17.90;99.90
2621;DHT22;1320;48.128;11.592;2023-05-07T06:45:57;18.10;99.90
2621;DHT22;1320;48.128;11.592;2023-05-07T06:48:23;18.20;99.90
2621;DHT22;1320;48.128;11.592;2023-05-07T06:50:48;18.30;99.90
2621;DHT22;1320;48.128;11.592;2023-05-07T06:53:14;18.50;99.90
2621;DHT22;1320;48.128;11.592;2023-05-07T06:55:40;18.60;99.90
2621;DHT22;1320;48.128;11.592;2023-05-07T06:58:07;18.70;99.90
2621;DHT22;1320;48.128;11.592;2023-05-07T07:00:32;18.80;99.90
2621;DHT22;1320;48.128;11.592;2023-05-07T07:02:58;18.90;99.90
2621;DHT22;1320;48.128;11.592;2023-05-07T07:05:25;19.00;99.90
2621;DHT22;1320;48.128;11.592;2023-05-07T07:07:50;19.00;99.90
2621;DHT22;1320;48.128;11.592;2023-05-07T07:10:21;19.10;99.90
2621;DHT22;1320;48.128;11.592;2023-05-07T07:12:48;19.30;99.90
2621;DHT22;1320;48.128;11.592;2023-05-07T07:15:14;19.40;99.90
2621;DHT22;1320;48.128;11.592;2023-05-07T07:17:40;19.50;99.90
2621;DHT22;1320;48.128;11.592;2023-05-07T07:20:06;19.60;99.90
2621;DHT22;1320;48.128;11.592;2023-05-07T07:22:32;19.70;99.90
2621;DHT22;1320;48.128;11.592;2023-05-07T07:24:57;19.80;99.90
2621;DHT22;1320;48.128;11.592;2023-05-07T07:27:23;19.90;99.90
2621;DHT22;1320;48.128;11.592;2023-05-07T07:29:49;20.00;99.90
2621;DHT22;1320;48.128;11.592;2023-05-07T07:32:14;20.10;99.90
2621;DHT22;1320;48.128;11.592;2023-05-07T07:34:40;20.20;99.90
2621;DHT22;1320;48.128;11.592;2023-05-07T07:37:06;20.30;99.90
2621;DHT22;1320;48.128;11.592;2023-05-07T07:39:32;20.40;99.90
2621;DHT22;1320;48.128;11.592;2023-05-07T07:41:58;20.50;99.90
2621;DHT22;1320;48.128;11.592;2023-05-07T07:44:24;20.60;99.90
2621;DHT22;1320;48.128;11.592;2023-05-07T07:46:50;20.70;99.90
2621;DHT22;1320;48.128;11.592;2023-05-07T07:49:16;20.80;99.90
2621;DHT22;1320;48.128;11.592;2023-05-07T07:51:42;20.90;99.90
2621;DHT22;1320;48.128;11.592;2023-05-07T07:54:08;21.00;99.90
2621;DHT22;1320;48.128;11.592;2023-05-07T07:56:34;21.10;99.90
2621;DHT22;1320;48.128;11.592;2023-05-07T07:59:00;21.20;99.90
2621;DHT22;1320;48.128;11.592;2023-05-07T08:01:25;21.40;99.90
2621;DHT22;1320;48.128;11.592;2023-05-07T08:03:51;21.60;99.90
2621;DHT22;1320;48.128;11.592;2023-05-07T08:06:17;21.80;99.90
2621;DHT22;1320;48.128;11.592;2023-05-07T08:08:43;22.40;99.90
2621;DHT22;1320;48.128;11.592;2023-05-07T08:11:08;23.00;99.90
2621;DHT22;1320;48.128;11.592;2023-05-07T08:13:35;23.90;99.90
2621;DHT22;1320;48.128;11.592;2023-05-07T08:16:00;24.50;99.90
2621;DHT22;1320;48.128;11.592;2023-05-07T08:18:26;24.90;99.90
2621;DHT22;1320;48.128;11.592;2023-05-07T08:20:54;25.20;99.90
2621;DHT22;1320;48.128;11.592;2023-05-07T08:23:20;25.50;99.90
2621;DHT22;1320;48.128;11.592;2023-05-07T08:25:46;25.80;98.60
2621;DHT22;1320;48.128;11.592;2023-05-07T08:28:12;25.90;97.50
2621;DHT22;1320;48.128;11.592;2023-05-07T08:30:37;26.00;97.40
2621;DHT22;1320;48.128;11.592;2023-05-07T08:33:03;26.20;96.80
2621;DHT22;1320;48.128;11.592;2023-05-07T08:35:29;26.30;96.20
2621;DHT22;1320;48.128;11.592;2023-05-07T08:37:55;26.30;96.30
2621;DHT22;1320;48.128;11.592;2023-05-07T08:40:25;26.50;96.20
2621;DHT22;1320;48.128;11.592;2023-05-07T08:42:53;26.70;95.60
2621;DHT22;1320;48.128;11.592;2023-05-07T08:45:20;26.70;94.90
2621;DHT22;1320;48.128;11.592;2023-05-07T08:47:57;26.80;94.80
2621;DHT22;1320;48.128;11.592;2023-05-07T08:50:23;27.00;94.50
2621;DHT22;1320;48.128;11.592;2023-05-07T08:52:49;27.10;94.60
2621;DHT22;1320;48.128;11.592;2023-05-07T08:55:15;27.10;94.80
2621;DHT22;1320;48.128;11.592;2023-05-07T08:57:41;27.10;94.30
2621;DHT22;1320;48.128;11.592;2023-05-07T09:00:07;27.10;94.40
2621;DHT22;1320;48.128;11.592;2023-05-07T09:02:35;27.10;95.10
2621;DHT22;1320;48.128;11.592;2023-05-07T09:05:01;27.30;94.70
2621;DHT22;1320;48.128;11.592;2023-05-07T09:07:27;27.50;94.40
2621;DHT22;1320;48.128;11.592;2023-05-07T09:09:53;27.80;94.10
2621;DHT22;1320;48.128;11.592;2023-05-07T09:12:21;28.00;93.60
2621;DHT22;1320;48.128;11.592;2023-05-07T09:14:47;28.20;93.10
2621;DHT22;1320;48.128;11.592;2023-05-07T09:17:13;28.20;92.00
2621;DHT22;1320;48.128;11.592;2023-05-07T09:19:39;28.30;92.30
2621;DHT22;1320;48.128;11.592;2023-05-07T09:22:05;28.20;97.00
2621;DHT22;1320;48.128;11.592;2023-05-07T09:24:34;27.90;97.90
2621;DHT22;1320;48.128;11.592;2023-05-07T09:27:03;27.70;98.30
2621;DHT22;1320;48.128;11.592;2023-05-07T09:29:29;27.70;98.40
2621;DHT22;1320;48.128;11.592;2023-05-07T09:32:04;27.70;99.80
2621;DHT22;1320;48.128;11.592;2023-05-07T09:34:30;27.80;99.90
2621;DHT22;1320;48.128;11.592;2023-05-07T09:36:58;27.90;99.90
2621;DHT22;1320;48.128;11.592;2023-05-07T09:39:24;27.90;97.60
2621;DHT22;1320;48.128;11.592;2023-05-07T09:41:51;27.90;97.70
2621;DHT22;1320;48.128;11.592;2023-05-07T09:44:20;28.00;98.10
2621;DHT22;1320;48.128;11.592;2023-05-07T09:46:53;28.00;97.80
2621;DHT22;1320;48.128;11.592;2023-05-07T09:49:23;28.00;97.30
2621;DHT22;1320;48.128;11.592;2023-05-07T09:51:50;28.00;97.40
2621;DHT22;1320;48.128;11.592;2023-05-07T09:54:17;28.00;96.80
2621;DHT22;1320;48.128;11.592;2023-05-07T09:56:48;28.00;96.50
2621;DHT22;1320;48.128;11.592;2023-05-07T09:59:14;28.00;96.90
2621;DHT22;1320;48.128;11.592;2023-05-07T10:01:42;28.00;97.00
2621;DHT22;1320;48.128;11.592;2023-05-07T10:04:10;27.90;97.60
2621;DHT22;1320;48.128;11.592;2023-05-07T10:06:36;27.90;97.60
2621;DHT22;1320;48.128;11.592;2023-05-07T10:09:04;28.00;97.40
2621;DHT22;1320;48.128;11.592;2023-05-07T10:11:36;27.80;96.30
2621;DHT22;1320;48.128;11.592;2023-05-07T10:14:03;27.80;96.30
2621;DHT22;1320;48.128;11.592;2023-05-07T10:16:33;27.70;96.20
2621;DHT22;1320;48.128;11.592;2023-05-07T10:19:06;27.50;95.30
2621;DHT22;1320;48.128;11.592;2023-05-07T10:21:39;27.40;94.50
2621;DHT22;1320;48.128;11.592;2023-05-07T10:24:20;27.30;96.60
2621;DHT22;1320;48.128;11.592;2023-05-07T10:26:49;27.10;90.60
2621;DHT22;1320;48.128;11.592;2023-05-07T10:34:28;26.30;91.30
2621;DHT22;1320;48.128;11.592;2023-05-07T10:36:55;26.20;90.70
2621;DHT22;1320;48.128;11.592;2023-05-07T10:39:22;26.00;91.00
2621;DHT22;1320;48.128;11.592;2023-05-07T10:41:48;25.90;90.70
2621;DHT22;1320;48.128;11.592;2023-05-07T10:44:26;25.90;90.50
2621;DHT22;1320;48.128;11.592;2023-05-07T10:47:04;25.90;90.60
2621;DHT22;1320;48.128;11.592;2023-05-07T10:49:30;25.90;90.80
2621;DHT22;1320;48.128;11.592;2023-05-07T10:52:25;26.00;90.30
2621;DHT22;1320;48.128;11.592;2023-05-07T10:57:46;26.20;90.50
2621;DHT22;1320;48.128;11.592;2023-05-07T11:05:31;26.60;91.20
2621;DHT22;1320;48.128;11.592;2023-05-07T11:08:02;26.70;92.00
2621;DHT22;1320;48.128;11.592;2023-05-07T11:13:17;26.70;91.80
2621;DHT22;1320;48.128;11.592;2023-05-07T11:15:47;26.70;91.60
2621;DHT22;1320;48.128;11.592;2023-05-07T11:18:14;26.60;92.20
2621;DHT22;1320;48.128;11.592;2023-05-07T11:20:53;26.50;91.80
2621;DHT22;1320;48.128;11.592;2023-05-07T11:26:05;26.30;92.40
2621;DHT22;1320;48.128;11.592;2023-05-07T11:28:32;26.30;93.00
2621;DHT22;1320;48.128;11.592;2023-05-07T11:31:02;26.40;92.60
2621;DHT22;1320;48.128;11.592;2023-05-07T11:33:29;26.40;92.70
2621;DHT22;1320;48.128;11.592;2023-05-07T11:35:55;26.50;92.70
2621;DHT22;1320;48.128;11.592;2023-05-07T11:38:21;26.60;92.00
2621;DHT22;1320;48.128;11.592;2023-05-07T11:40:57;26.70;92.10
2621;DHT22;1320;48.128;11.592;2023-05-07T11:43:26;26.80;92.20
2621;DHT22;1320;48.128;11.592;2023-05-07T11:45:51;26.90;92.40
2621;DHT22;1320;48.128;11.592;2023-05-07T11:48:18;27.00;92.20
2621;DHT22;1320;48.128;11.592;2023-05-07T11:50:59;27.10;92.00
2621;DHT22;1320;48.128;11.592;2023-05-07T11:53:26;27.20;91.80
2621;DHT22;1320;48.128;11.592;2023-05-07T11:55:53;27.20;91.80
2621;DHT22;1320;48.128;11.592;2023-05-07T11:58:23;27.20;91.80
2621;DHT22;1320;48.128;11.592;2023-05-07T12:00:52;27.30;91.80
2621;DHT22;1320;48.128;11.592;2023-05-07T12:03:19;27.30;91.50
2621;DHT22;1320;48.128;11.592;2023-05-07T12:05:45;27.40;91.40
2621;DHT22;1320;48.128;11.592;2023-05-07T12:08:18;27.50;91.30
2621;DHT22;1320;48.128;11.592;2023-05-07T12:10:46;27.50;91.60
2621;DHT22;1320;48.128;11.592;2023-05-07T12:13:23;27.50;91.60
2621;DHT22;1320;48.128;11.592;2023-05-07T12:15:54;27.40;91.10
2621;DHT22;1320;48.128;11.592;2023-05-07T12:18:21;27.40;91.40
2621;DHT22;1320;48.128;11.592;2023-05-07T12:20:47;27.40;91.10
2621;DHT22;1320;48.128;11.592;2023-05-07T12:23:13;27.40;90.90
2621;DHT22;1320;48.128;11.592;2023-05-07T12:25:40;27.40;90.90
2621;DHT22;1320;48.128;11.592;2023-05-07T12:28:15;27.30;90.80
2621;DHT22;1320;48.128;11.592;2023-05-07T12:30:42;27.30;90.80
2621;DHT22;1320;48.128;11.592;2023-05-07T12:33:09;27.20;90.60
2621;DHT22;1320;48.128;11.592;2023-05-07T12:35:40;27.20;90.40
2621;DHT22;1320;48.128;11.592;2023-05-07T12:38:11;27.20;90.50
2621;DHT22;1320;48.128;11.592;2023-05-07T12:43:06;27.20;90.10
2621;DHT22;1320;48.128;11.592;2023-05-07T12:45:37;27.20;90.10
2621;DHT22;1320;48.128;11.592;2023-05-07T12:48:03;27.10;89.80
2621;DHT22;1320;48.128;11.592;2023-05-07T12:50:32;27.10;90.00
2621;DHT22;1320;48.128;11.592;2023-05-07T12:52:58;27.10;89.90
2621;DHT22;1320;48.128;11.592;2023-05-07T12:55:24;27.00;88.80
2621;DHT22;1320;48.128;11.592;2023-05-07T12:57:51;27.00;89.00
2621;DHT22;1320;48.128;11.592;2023-05-07T13:00:32;26.90;89.70
2621;DHT22;1320;48.128;11.592;2023-05-07T13:02:58;26.90;88.90
2621;DHT22;1320;48.128;11.592;2023-05-07T13:05:24;26.90;88.00
2621;DHT22;1320;48.128;11.592;2023-05-07T13:07:53;27.00;87.40
2621;DHT22;1320;48.128;11.592;2023-05-07T13:10:20;26.90;87.10
2621;DHT22;1320;48.128;11.592;2023-05-07T13:12:45;26.90;86.90
2621;DHT22;1320;48.128;11.592;2023-05-07T13:15:11;27.10;86.70
2621;DHT22;1320;48.128;11.592;2023-05-07T13:17:36;27.10;86.00
2621;DHT22;1320;48.128;11.592;2023-05-07T13:20:02;27.10;85.70
2621;DHT22;1320;48.128;11.592;2023-05-07T13:22:28;27.10;84.80
2621;DHT22;1320;48.128;11.592;2023-05-07T13:24:53;27.00;85.10
2621;DHT22;1320;48.128;11.592;2023-05-07T13:27:20;27.10;84.70
2621;DHT22;1320;48.128;11.592;2023-05-07T13:29:45;27.10;84.40
2621;DHT22;1320;48.128;11.592;2023-05-07T13:32:11;27.30;85.80
2621;DHT22;1320;48.128;11.592;2023-05-07T13:34:37;27.40;93.00
2621;DHT22;1320;48.128;11.592;2023-05-07T13:37:02;27.20;82.60
2621;DHT22;1320;48.128;11.592;2023-05-07T13:39:28;27.70;82.60
2621;DHT22;1320;48.128;11.592;2023-05-07T13:41:54;27.70;82.50
2621;DHT22;1320;48.128;11.592;2023-05-07T13:44:20;27.90;82.10
2621;DHT22;1320;48.128;11.592;2023-05-07T13:46:46;27.90;81.10
2621;DHT22;1320;48.128;11.592;2023-05-07T13:49:11;28.00;81.20
2621;DHT22;1320;48.128;11.592;2023-05-07T13:51:38;28.10;80.30
2621;DHT22;1320;48.128;11.592;2023-05-07T13:54:04;28.10;80.60
2621;DHT22;1320;48.128;11.592;2023-05-07T13:56:29;28.10;81.00
2621;DHT22;1320;48.128;11.592;2023-05-07T14:01:23;28.20;80.10
2621;DHT22;1320;48.128;11.592;2023-05-07T14:03:49;28.30;80.40
2621;DHT22;1320;48.128;11.592;2023-05-07T14:06:15;28.50;80.30
2621;DHT22;1320;48.128;11.592;2023-05-07T14:08:40;28.60;79.90
2621;DHT22;1320;48.128;11.592;2023-05-07T14:11:06;28.70;80.00
2621;DHT22;1320;48.128;11.592;2023-05-07T14:13:32;28.70;80.00
2621;DHT22;1320;48.128;11.592;2023-05-07T14:15:58;28.70;80.10
2621;DHT22;1320;48.128;11.592;2023-05-07T14:18:23;28.60;79.80
2621;DHT22;1320;48.128;11.592;2023-05-07T14:20:49;28.60;79.80
2621;DHT22;1320;48.128;11.592;2023-05-07T14:23:15;28.50;79.70
2621;DHT22;1320;48.128;11.592;2023-05-07T14:25:43;28.30;79.60
2621;DHT22;1320;48.128;11.592;2023-05-07T14:28:09;28.20;80.10
2621;DHT22;1320;48.128;11.592;2023-05-07T14:30:34;28.00;81.50
2621;DHT22;1320;48.128;11.592;2023-05-07T14:33:00;27.80;81.50
2621;DHT22;1320;48.128;11.592;2023-05-07T14:35:26;27.60;82.60
2621;DHT22;1320;48.128;11.592;2023-05-07T14:37:51;27.40;83.00
2621;DHT22;1320;48.128;11.592;2023-05-07T14:40:17;27.30;83.50
2621;DHT22;1320;48.128;11.592;2023-05-07T14:42:42;27.10;84.10
2621;DHT22;1320;48.128;11.592;2023-05-07T14:45:09;27.00;83.80
2621;DHT22;1320;48.128;11.592;2023-05-07T14:47:34;26.90;84.90
2621;DHT22;1320;48.128;11.592;2023-05-07T14:50:00;26.80;85.10
2621;DHT22;1320;48.128;11.592;2023-05-07T14:52:26;26.80;85.80
2621;DHT22;1320;48.128;11.592;2023-05-07T14:54:52;26.90;87.40
2621;DHT22;1320;48.128;11.592;2023-05-07T14:57:18;27.00;87.00
2621;DHT22;1320;48.128;11.592;2023-05-07T14:59:45;27.00;87.00
2621;DHT22;1320;48.128;11.592;2023-05-07T15:02:14;26.90;87.10
2621;DHT22;1320;48.128;11.592;2023-05-07T15:04:40;26.80;87.10
2621;DHT22;1320;48.128;11.592;2023-05-07T15:07:14;26.60;87.00
2621;DHT22;1320;48.128;11.592;2023-05-07T15:09:43;26.40;87.40
2621;DHT22;1320;48.128;11.592;2023-05-07T15:12:09;26.20;87.70
2621;DHT22;1320;48.128;11.592;2023-05-07T15:14:35;26.00;88.10
2621;DHT22;1320;48.128;11.592;2023-05-07T15:17:01;25.90;88.60
2621;DHT22;1320;48.128;11.592;2023-05-07T15:19:26;25.70;89.20
2621;DHT22;1320;48.128;11.592;2023-05-07T15:21:57;25.50;89.80
2621;DHT22;1320;48.128;11.592;2023-05-07T15:24:24;25.40;90.10
2621;DHT22;1320;48.128;11.592;2023-05-07T15:26:51;25.30;90.30
2621;DHT22;1320;48.128;11.592;2023-05-07T15:29:17;25.20;90.20
2621;DHT22;1320;48.128;11.592;2023-05-07T15:31:43;25.10;90.40
2621;DHT22;1320;48.128;11.592;2023-05-07T15:34:08;25.00;90.50
2621;DHT22;1320;48.128;11.592;2023-05-07T15:36:34;24.90;90.40
2621;DHT22;1320;48.128;11.592;2023-05-07T15:39:00;24.80;90.30
2621;DHT22;1320;48.128;11.592;2023-05-07T15:41:27;24.80;90.50
2621;DHT22;1320;48.128;11.592;2023-05-07T15:43:53;24.70;90.40
2621;DHT22;1320;48.128;11.592;2023-05-07T15:46:20;24.60;90.40
2621;DHT22;1320;48.128;11.592;2023-05-07T15:48:46;24.50;90.50
2621;DHT22;1320;48.128;11.592;2023-05-07T15:51:12;24.40;90.70
2621;DHT22;1320;48.128;11.592;2023-05-07T15:53:38;24.30;90.80
2621;DHT22;1320;48.128;11.592;2023-05-07T15:56:05;24.20;90.80
2621;DHT22;1320;48.128;11.592;2023-05-07T15:58:31;24.20;90.80
2621;DHT22;1320;48.128;11.592;2023-05-07T16:00:57;24.10;90.70
2621;DHT22;1320;48.128;11.592;2023-05-07T16:03:23;24.00;90.70
2621;DHT22;1320;48.128;11.592;2023-05-07T16:05:48;23.90;90.70